Argonne, South Dakota
Current Conditions -  °F | °C
As of 2:50 AM on Sunday 21 Dec 2014 (Local Time) from KMDS Reporting Station
Moderate Fog Moderate Fog  
Wind Chill: 17°   Ceiling: 200
Heat Index: 28°   Visibility: 0mi
Dew Point: 28°   Wind: 15mph
Humidity: 100%   Direction: 180°S
Pressure: 29.85"   Gusts: 25mph
Location:  44.0529°N, 97.5161°W
Report Text: KMDS 210850Z AUTO 18013G22KT M1/4SM FZFG OVC002 M02/M02 A2985 RMK AO2
Loading
Personal Weather Stations






























Interactive Weather Map New forecast layout! Learn more

10-Day Weather Forecast

Advertisements
Track Severe Weather on mobile